createdAt,value
2024-01-01T00:01:45.765Z,64.70
2024-01-01T00:04:14.146Z,59.60
2024-01-01T00:06:43.041Z,52.47
2024-01-01T00:09:12.137Z,54.20
2024-01-01T00:11:42.731Z,51.50
2024-01-01T00:14:14.127Z,66.53
2024-01-01T00:16:44.516Z,58.70
2024-01-01T00:19:14.108Z,54.13
2024-01-01T00:21:42.663Z,60.30
2024-01-01T00:24:11.010Z,58.07
2024-01-01T00:26:39.654Z,52.97
2024-01-01T00:29:14.960Z,58.20
2024-01-01T00:31:50.015Z,59.77
2024-01-01T00:34:18.354Z,52.17
2024-01-01T00:36:47.094Z,55.03
2024-01-01T00:39:15.428Z,56.63
2024-01-01T00:41:46.505Z,49.73
2024-01-01T00:44:14.917Z,54.40
2024-01-01T00:46:44.223Z,52.80
2024-01-01T00:49:14.067Z,59.20
2024-01-01T00:51:43.170Z,53.23
2024-01-01T00:54:12.965Z,54.93
2024-01-01T00:56:41.601Z,47.40
2024-01-01T00:59:10.218Z,55.57
2024-01-01T01:01:39.345Z,52.60
2024-01-01T01:04:07.677Z,55.87
2024-01-01T01:06:40.432Z,59.73
2024-01-01T01:09:10.235Z,56.10
2024-01-01T01:11:39.435Z,68.33
2024-01-01T01:14:07.921Z,64.17
2024-01-01T01:16:36.868Z,56.87
2024-01-01T01:19:05.690Z,50.83
2024-01-01T01:21:34.283Z,56.37
2024-01-01T01:24:04.622Z,54.90
2024-01-01T01:26:33.354Z,54.57
2024-01-01T01:29:01.845Z,59.23
2024-01-01T01:31:30.512Z,51.70
2024-01-01T01:33:58.848Z,45.77
2024-01-01T01:36:27.444Z,44.30
2024-01-01T01:38:55.864Z,45.13
2024-01-01T01:41:25.748Z,47.20
2024-01-01T01:43:53.972Z,40.03
2024-01-01T01:46:22.676Z,46.40
2024-01-01T01:48:51.286Z,42.17
2024-01-01T01:51:20.155Z,41.80
2024-01-01T01:53:49.268Z,44.67
2024-01-01T01:56:19.241Z,42.70
2024-01-01T01:58:50.041Z,42.97
2024-01-01T02:01:19.510Z,51.70
2024-01-01T02:03:47.867Z,42.63
2024-01-01T02:06:16.592Z,41.67
2024-01-01T02:08:45.009Z,43.77
2024-01-01T02:11:13.855Z,44.50
2024-01-01T02:13:42.335Z,37.30
2024-01-01T02:16:12.649Z,35.93
2024-01-01T02:18:41.596Z,38.37
2024-01-01T02:21:10.248Z,35.53
2024-01-01T02:23:39.976Z,38.13
2024-01-01T02:26:09.560Z,46.27
2024-01-01T02:28:37.960Z,43.07
2024-01-01T02:31:06.513Z,44.63
2024-01-01T02:33:34.764Z,37.57
2024-01-01T02:36:03.378Z,42.67
2024-01-01T02:38:31.585Z,40.60
2024-01-01T02:41:20.310Z,44.77
2024-01-01T02:43:48.978Z,44.33
2024-01-01T02:46:17.518Z,41.40
2024-01-01T02:48:45.825Z,39.23
2024-01-01T02:51:14.586Z,35.47
2024-01-01T02:53:42.945Z,37.07
2024-01-01T02:56:18.093Z,33.37
2024-01-01T02:58:48.540Z,37.83
2024-01-01T03:01:17.195Z,43.13
2024-01-01T03:03:45.453Z,33.60
2024-01-01T03:06:14.778Z,41.90
2024-01-01T03:08:43.046Z,36.83
2024-01-01T03:11:11.655Z,34.33
2024-01-01T03:13:40.349Z,50.87
2024-01-01T03:16:10.753Z,37.50
2024-01-01T03:18:39.168Z,33.40
2024-01-01T03:21:08.182Z,32.50
2024-01-01T03:23:36.976Z,42.67
2024-01-01T03:26:05.827Z,40.90
2024-01-01T03:28:34.222Z,45.03
2024-01-01T03:31:02.894Z,42.10
2024-01-01T03:33:35.425Z,31.20
2024-01-01T03:36:04.148Z,41.17
2024-01-01T03:38:32.668Z,37.80
2024-01-01T03:41:01.202Z,41.27
2024-01-01T03:43:29.426Z,41.43
2024-01-01T03:45:58.028Z,35.63
2024-01-01T03:48:26.397Z,38.53
2024-01-01T03:50:56.498Z,37.17
2024-01-01T03:53:24.742Z,37.63
2024-01-01T03:55:53.446Z,41.97
2024-01-01T03:58:21.819Z,40.03
2024-01-01T04:00:50.394Z,40.17
2024-01-01T04:03:18.657Z,34.43
2024-01-01T04:05:47.481Z,38.73
2024-01-01T04:08:17.278Z,34.23
2024-01-01T04:10:46.148Z,35.13
2024-01-01T04:13:14.381Z,32.63
2024-01-01T04:15:43.160Z,30.93
2024-01-01T04:18:11.652Z,42.87
2024-01-01T04:20:40.406Z,36.73
2024-01-01T04:23:08.718Z,38.47
2024-01-01T04:25:38.595Z,37.60
2024-01-01T04:28:07.402Z,39.50
2024-01-01T04:30:36.148Z,31.80
2024-01-01T04:33:04.915Z,36.30
2024-01-01T04:35:34.213Z,37.27
2024-01-01T04:38:02.802Z,38.73
2024-01-01T04:40:31.498Z,33.20
2024-01-01T04:43:01.152Z,37.27
2024-01-01T04:45:32.544Z,31.97
2024-01-01T04:48:00.912Z,33.10
2024-01-01T04:50:29.636Z,33.63
2024-01-01T04:52:57.940Z,38.47
2024-01-01T04:55:26.498Z,33.90
2024-01-01T04:57:54.812Z,33.37
2024-01-01T05:00:24.774Z,35.83
2024-01-01T05:02:57.313Z,32.57
2024-01-01T05:05:26.220Z,36.23
2024-01-01T05:07:54.615Z,32.07
2024-01-01T05:10:23.259Z,35.63
2024-01-01T05:12:51.605Z,35.23
2024-01-01T05:15:20.251Z,35.77
2024-01-01T05:17:50.012Z,41.53
2024-01-01T05:20:19.020Z,40.67
2024-01-01T05:22:47.392Z,56.80
2024-01-01T05:25:16.077Z,43.13
2024-01-01T05:27:44.473Z,58.97
2024-01-01T05:30:13.940Z,47.80
2024-01-01T05:32:42.439Z,54.13
2024-01-01T05:35:12.692Z,45.23
2024-01-01T05:37:40.993Z,49.73
2024-01-01T05:40:10.304Z,41.80
2024-01-01T05:42:38.619Z,46.80
2024-01-01T05:45:08.357Z,51.23
2024-01-01T05:47:36.942Z,41.00
2024-01-01T05:50:06.022Z,43.20
2024-01-01T05:52:35.758Z,44.77
2024-01-01T05:55:04.544Z,44.87
2024-01-01T05:57:32.889Z,46.20
2024-01-01T06:00:01.519Z,42.60
2024-01-01T06:02:30.431Z,43.87
2024-01-01T06:04:59.166Z,49.43
2024-01-01T06:07:27.503Z,42.07
2024-01-01T06:09:58.825Z,42.20
2024-01-01T06:12:27.324Z,40.97
2024-01-01T06:14:55.916Z,46.47
2024-01-01T06:17:24.405Z,45.13
2024-01-01T06:19:53.223Z,42.90
2024-01-01T06:22:21.548Z,40.70
2024-01-01T06:24:50.172Z,45.53
2024-01-01T06:27:19.865Z,45.63
2024-01-01T06:29:48.486Z,44.47
2024-01-01T06:32:17.003Z,43.57
2024-01-01T06:34:47.229Z,43.10
2024-01-01T06:37:15.538Z,39.97
2024-01-01T06:39:44.048Z,44.33
2024-01-01T06:42:14.971Z,53.23
2024-01-01T06:44:45.278Z,51.50
2024-01-01T06:47:13.762Z,46.30
2024-01-01T06:49:42.360Z,51.70
2024-01-01T06:52:11.325Z,46.10
2024-01-01T06:54:41.095Z,47.93
2024-01-01T06:57:09.567Z,44.33
2024-01-01T06:59:38.689Z,43.13
2024-01-01T07:02:09.375Z,51.77
2024-01-01T07:04:38.148Z,54.27
2024-01-01T07:07:06.669Z,53.10
2024-01-01T07:09:35.611Z,43.53
2024-01-01T07:12:20.546Z,43.17
2024-01-01T07:14:49.593Z,46.87
2024-01-01T07:17:20.570Z,49.43
2024-01-01T07:19:49.964Z,42.03
2024-01-01T07:22:18.337Z,47.37
2024-01-01T07:24:47.876Z,46.67
2024-01-01T07:27:16.160Z,49.70
2024-01-01T07:29:44.721Z,48.10
2024-01-01T07:32:13.088Z,45.53
2024-01-01T07:34:43.218Z,46.20
2024-01-01T07:37:12.305Z,52.70
2024-01-01T07:39:40.904Z,48.87
2024-01-01T07:42:10.161Z,54.13
2024-01-01T07:44:38.872Z,51.77
2024-01-01T07:47:07.576Z,41.50
2024-01-01T07:49:36.236Z,48.27
2024-01-01T07:52:09.331Z,43.70
2024-01-01T07:54:39.893Z,53.60
2024-01-01T07:57:08.421Z,45.00
2024-01-01T07:59:37.098Z,47.00
2024-01-01T08:02:05.519Z,47.97
2024-01-01T08:04:34.072Z,46.63
2024-01-01T08:07:02.389Z,50.93
2024-01-01T08:09:32.599Z,50.30
2024-01-01T08:12:01.193Z,55.00
2024-01-01T08:14:29.988Z,47.17
2024-01-01T08:16:58.313Z,53.27
2024-01-01T08:19:27.051Z,46.63
2024-01-01T08:21:55.294Z,45.10
2024-01-01T08:24:23.885Z,54.83
2024-01-01T08:26:53.570Z,46.63
2024-01-01T08:29:22.170Z,56.93
2024-01-01T08:31:50.634Z,47.20
2024-01-01T08:34:19.372Z,42.00
2024-01-01T08:36:47.648Z,58.50
2024-01-01T08:39:16.449Z,59.13
2024-01-01T08:41:45.423Z,51.00
2024-01-01T08:44:15.520Z,59.57
2024-01-01T08:46:43.878Z,57.47
2024-01-01T08:49:12.528Z,48.33
2024-01-01T08:51:41.031Z,46.70
2024-01-01T08:54:09.509Z,42.70
2024-01-01T08:56:37.747Z,52.10
2024-01-01T08:59:06.433Z,47.60
2024-01-01T09:01:37.261Z,46.60
2024-01-01T09:04:06.569Z,56.00
2024-01-01T09:06:35.007Z,49.30
2024-01-01T09:09:03.614Z,52.87
2024-01-01T09:11:31.923Z,53.13
2024-01-01T09:14:03.054Z,49.27
2024-01-01T09:16:33.101Z,53.77
2024-01-01T09:19:03.351Z,47.37
2024-01-01T09:21:31.766Z,49.13
2024-01-01T09:24:02.794Z,52.53
2024-01-01T09:26:31.981Z,47.70
2024-01-01T09:29:00.847Z,50.20
2024-01-01T09:31:29.677Z,48.23
2024-01-01T09:34:02.539Z,53.57
2024-01-01T09:36:32.683Z,52.80
2024-01-01T09:39:01.208Z,50.90
2024-01-01T09:41:29.914Z,48.70
2024-01-01T09:43:58.681Z,46.20
2024-01-01T09:46:29.852Z,43.27
2024-01-01T09:48:58.911Z,46.80
2024-01-01T09:51:27.333Z,46.73
2024-01-01T09:53:57.267Z,45.47
2024-01-01T09:56:25.724Z,44.60
2024-01-01T09:58:54.478Z,56.83
2024-01-01T10:01:22.702Z,50.80
2024-01-01T10:04:03.747Z,43.93
2024-01-01T10:06:34.521Z,47.87
2024-01-01T10:09:09.882Z,43.53
2024-01-01T10:11:42.535Z,47.50
2024-01-01T10:14:13.210Z,44.17
2024-01-01T10:16:41.795Z,39.93
2024-01-01T10:19:10.800Z,49.10
2024-01-01T10:21:41.605Z,40.17
2024-01-01T10:24:26.839Z,46.93
2024-01-01T10:27:03.940Z,38.83
2024-01-01T10:29:36.594Z,47.60
2024-01-01T10:32:06.968Z,53.07
2024-01-01T10:34:38.106Z,39.23
2024-01-01T10:37:07.611Z,40.77
2024-01-01T10:39:38.744Z,46.27
2024-01-01T10:42:08.210Z,40.27
2024-01-01T10:44:36.990Z,37.40
2024-01-01T10:47:10.170Z,40.23
2024-01-01T10:49:44.991Z,41.97
2024-01-01T10:52:32.339Z,42.20
2024-01-01T10:55:18.447Z,41.50
2024-01-01T10:58:14.165Z,35.27
2024-01-01T11:00:52.302Z,45.50
2024-01-01T11:03:21.242Z,36.73
2024-01-01T11:05:51.697Z,46.03
2024-01-01T11:08:28.571Z,41.60
2024-01-01T11:10:58.895Z,40.23
2024-01-01T11:13:54.346Z,42.13
2024-01-01T11:16:24.019Z,35.37
2024-01-01T11:18:53.627Z,34.17
2024-01-01T11:21:30.200Z,37.03
2024-01-01T11:26:36.550Z,35.90
2024-01-01T11:29:27.084Z,42.67
2024-01-01T11:32:02.751Z,34.57
2024-01-01T11:34:37.742Z,30.83
2024-01-01T11:37:09.249Z,32.63
2024-01-01T11:39:37.607Z,32.63
2024-01-01T11:42:07.719Z,29.67
2024-01-01T11:44:36.082Z,29.07
2024-01-01T11:47:04.760Z,28.53
2024-01-01T11:49:33.066Z,42.70
2024-01-01T11:52:04.095Z,32.17
2024-01-01T11:54:32.509Z,37.33
2024-01-01T11:57:01.991Z,31.83
2024-01-01T11:59:32.344Z,34.47
2024-01-01T12:02:01.512Z,31.73
2024-01-01T12:04:30.829Z,33.40
2024-01-01T12:06:59.565Z,33.30
2024-01-01T12:09:27.869Z,32.50
2024-01-01T12:12:04.584Z,31.83
2024-01-01T12:14:34.222Z,37.83
2024-01-01T12:17:06.581Z,36.23
2024-01-01T12:19:35.007Z,39.00
2024-01-01T12:22:04.663Z,36.03
2024-01-01T12:24:33.256Z,29.13
2024-01-01T12:27:04.035Z,33.77
2024-01-01T12:29:34.182Z,31.93
2024-01-01T12:32:03.795Z,33.93
2024-01-01T12:34:32.066Z,33.40
2024-01-01T12:37:01.898Z,30.30
2024-01-01T12:39:30.248Z,32.60
2024-01-01T12:41:59.211Z,36.80
2024-01-01T12:44:27.891Z,29.10
2024-01-01T12:46:58.420Z,36.23
2024-01-01T12:49:26.828Z,35.17
2024-01-01T12:51:56.129Z,31.97
2024-01-01T12:54:24.984Z,31.43
2024-01-01T12:56:54.521Z,32.10
2024-01-01T12:59:23.176Z,31.10
2024-01-01T13:01:52.029Z,27.63
2024-01-01T13:04:21.924Z,29.30
2024-01-01T13:06:50.824Z,26.67
2024-01-01T13:09:19.419Z,34.40
2024-01-01T13:11:48.141Z,32.83
2024-01-01T13:14:16.441Z,28.63
2024-01-01T13:16:46.193Z,29.70
2024-01-01T13:19:14.927Z,26.97
2024-01-01T13:21:45.049Z,26.87
2024-01-01T13:24:13.550Z,34.03
2024-01-01T13:26:42.121Z,31.13
2024-01-01T13:29:10.552Z,28.53
2024-01-01T13:31:39.107Z,31.03
2024-01-01T13:34:07.585Z,25.23
2024-01-01T13:36:37.396Z,29.83
2024-01-01T13:39:08.041Z,27.57
2024-01-01T13:41:36.593Z,28.17
2024-01-01T13:44:05.439Z,33.10
2024-01-01T13:46:34.998Z,33.80
2024-01-01T13:49:03.452Z,28.40
2024-01-01T13:51:32.004Z,26.67
2024-01-01T13:54:00.778Z,31.93
2024-01-01T13:56:30.866Z,32.77
2024-01-01T13:58:59.160Z,31.80
2024-01-01T14:01:36.155Z,24.80
2024-01-01T14:04:04.550Z,35.00
2024-01-01T14:06:33.869Z,28.27
2024-01-01T14:09:02.737Z,28.23
2024-01-01T14:11:36.027Z,31.40
2024-01-01T14:14:05.469Z,32.77
2024-01-01T14:16:34.101Z,31.40
2024-01-01T14:19:02.618Z,31.70
2024-01-01T14:21:34.285Z,32.70
2024-01-01T14:24:02.893Z,37.07
2024-01-01T14:26:33.958Z,29.63
2024-01-01T14:29:02.309Z,31.50
2024-01-01T14:31:30.959Z,31.03
2024-01-01T14:33:59.472Z,28.67
2024-01-01T14:36:28.247Z,26.63
2024-01-01T14:38:56.752Z,25.23
2024-01-01T14:41:25.350Z,23.83
2024-01-01T14:43:55.076Z,33.53
2024-01-01T14:46:23.719Z,26.13
2024-01-01T14:48:52.201Z,30.73
2024-01-01T14:51:20.953Z,30.37
2024-01-01T14:53:49.185Z,28.17
2024-01-01T14:56:19.605Z,27.87
2024-01-01T14:58:49.764Z,37.00
2024-01-01T15:01:22.947Z,36.27
2024-01-01T15:03:51.431Z,35.60
2024-01-01T15:06:20.448Z,38.40
2024-01-01T15:08:48.871Z,39.13
2024-01-01T15:11:17.437Z,36.50
2024-01-01T15:13:45.824Z,36.90
2024-01-01T15:16:14.436Z,42.33
2024-01-01T15:18:45.759Z,39.43
2024-01-01T15:21:14.780Z,47.10
2024-01-01T15:23:43.067Z,40.60
2024-01-01T15:26:13.284Z,38.73
2024-01-01T15:28:42.071Z,40.67
2024-01-01T15:31:10.612Z,48.17
2024-01-01T15:33:39.120Z,33.60
2024-01-01T15:36:10.619Z,38.47
2024-01-01T15:38:40.020Z,41.87
2024-01-01T15:41:09.358Z,35.30
2024-01-01T15:43:37.964Z,39.73
2024-01-01T15:46:07.730Z,39.30
2024-01-01T15:48:36.317Z,34.03
2024-01-01T15:51:11.887Z,32.67
2024-01-01T15:53:43.708Z,33.50
2024-01-01T15:56:12.279Z,33.80
2024-01-01T15:58:40.728Z,32.27
2024-01-01T16:01:10.683Z,34.70
2024-01-01T16:03:39.006Z,37.63
2024-01-01T16:06:08.376Z,36.87
2024-01-01T16:08:36.784Z,28.47
2024-01-01T16:11:07.660Z,34.20
2024-01-01T16:13:36.069Z,37.87
2024-01-01T16:16:04.633Z,32.13
2024-01-01T16:18:32.963Z,34.30
2024-01-01T16:21:02.085Z,35.67
2024-01-01T16:23:30.752Z,33.37
2024-01-01T16:25:59.373Z,29.50
2024-01-01T16:28:29.146Z,32.20
2024-01-01T16:30:57.742Z,30.27
2024-01-01T16:33:26.280Z,32.33
2024-01-01T16:35:54.814Z,34.10
2024-01-01T16:38:23.218Z,29.57
2024-01-01T16:40:51.843Z,32.40
2024-01-01T16:43:20.109Z,36.47
2024-01-01T16:45:50.174Z,32.13
2024-01-01T16:48:18.492Z,27.20
2024-01-01T16:50:48.795Z,30.27
2024-01-01T16:53:17.234Z,30.20
2024-01-01T16:55:45.989Z,36.67
2024-01-01T16:58:14.384Z,27.83
2024-01-01T17:00:43.323Z,34.17
2024-01-01T17:03:13.577Z,32.67
2024-01-01T17:05:42.344Z,26.83
2024-01-01T17:08:11.387Z,35.17
2024-01-01T17:10:39.992Z,28.23
2024-01-01T17:13:08.343Z,31.60
2024-01-01T17:15:39.225Z,31.57
2024-01-01T17:18:07.692Z,29.57
2024-01-01T17:20:38.287Z,38.13
2024-01-01T17:23:07.055Z,31.67
2024-01-01T17:25:36.053Z,24.20
2024-01-01T17:28:04.867Z,32.47
2024-01-01T17:30:33.452Z,24.63
2024-01-01T17:33:02.556Z,26.97
2024-01-01T17:35:35.490Z,26.17
2024-01-01T17:38:05.525Z,21.83
2024-01-01T17:40:34.124Z,28.87
2024-01-01T17:43:02.412Z,26.23
2024-01-01T17:45:30.960Z,23.47
2024-01-01T17:47:59.277Z,26.10
2024-01-01T17:50:28.010Z,24.83
2024-01-01T17:52:56.780Z,24.30
2024-01-01T17:55:26.657Z,24.17
2024-01-01T17:57:55.039Z,26.90
2024-01-01T18:00:23.584Z,24.97
2024-01-01T18:02:51.903Z,23.23
2024-01-01T18:05:20.524Z,27.97
2024-01-01T18:07:48.918Z,26.30
2024-01-01T18:10:17.596Z,22.50
2024-01-01T18:12:47.222Z,21.73
2024-01-01T18:15:15.857Z,25.03
2024-01-01T18:17:44.324Z,28.13
2024-01-01T18:20:13.781Z,20.93
2024-01-01T18:22:42.042Z,28.60
2024-01-01T18:25:13.872Z,23.13
2024-01-01T18:27:42.986Z,24.07
2024-01-01T18:30:14.107Z,30.70
2024-01-01T18:32:42.756Z,27.13
2024-01-01T18:35:11.501Z,24.80
2024-01-01T18:37:39.744Z,28.13
2024-01-01T18:40:10.079Z,26.10
2024-01-01T18:42:39.430Z,23.17
2024-01-01T18:45:08.648Z,19.73
2024-01-01T18:47:38.454Z,28.93
2024-01-01T18:50:08.965Z,21.37
2024-01-01T18:52:38.064Z,22.60
2024-01-01T18:55:09.176Z,23.27
2024-01-01T18:57:39.921Z,24.43
2024-01-01T19:00:10.597Z,21.27
2024-01-01T19:02:40.384Z,29.73
2024-01-01T19:05:09.268Z,28.30
2024-01-01T19:07:37.575Z,30.10
2024-01-01T19:10:07.837Z,30.73
2024-01-01T19:12:36.174Z,26.83
2024-01-01T19:15:05.848Z,25.23
2024-01-01T19:17:34.213Z,25.37
2024-01-01T19:20:05.472Z,25.47
2024-01-01T19:22:33.675Z,24.97
2024-01-01T19:25:02.172Z,29.03
2024-01-01T19:27:32.903Z,25.87
2024-01-01T19:30:01.748Z,30.03
2024-01-01T19:32:31.662Z,28.03
2024-01-01T19:35:00.590Z,30.37
2024-01-01T19:37:30.482Z,30.20
2024-01-01T19:40:00.496Z,24.20
2024-01-01T19:42:28.820Z,26.33
2024-01-01T19:44:57.392Z,29.20
2024-01-01T19:47:26.377Z,32.70
2024-01-01T19:49:54.985Z,35.20
2024-01-01T19:52:23.238Z,31.87
2024-01-01T19:54:53.156Z,30.40
2024-01-01T19:57:21.766Z,19.83
2024-01-01T19:59:50.380Z,33.47
2024-01-01T20:02:18.685Z,22.80
2024-01-01T20:04:47.304Z,25.83
2024-01-01T20:07:15.641Z,22.43
2024-01-01T20:09:45.389Z,27.87
2024-01-01T20:12:17.645Z,22.17
2024-01-01T20:14:46.686Z,28.50
2024-01-01T20:17:14.919Z,30.97
2024-01-01T20:19:43.670Z,29.33
2024-01-01T20:22:11.940Z,25.80
2024-01-01T20:24:40.511Z,24.00
2024-01-01T20:27:08.788Z,27.57
2024-01-01T20:29:40.680Z,33.07
2024-01-01T20:32:09.061Z,26.30
2024-01-01T20:34:37.625Z,33.93
2024-01-01T20:37:06.157Z,24.73
2024-01-01T20:39:34.770Z,21.53
2024-01-01T20:42:02.979Z,23.23
2024-01-01T20:44:31.511Z,31.37
2024-01-01T20:47:01.172Z,22.80
2024-01-01T20:49:29.832Z,24.87
2024-01-01T20:51:59.867Z,27.90
2024-01-01T20:54:30.104Z,24.97
2024-01-01T20:56:59.632Z,29.63
2024-01-01T20:59:28.606Z,21.13
2024-01-01T21:01:56.965Z,24.67
2024-01-01T21:04:26.807Z,26.43
2024-01-01T21:06:55.026Z,24.27
2024-01-01T21:09:23.554Z,26.70
2024-01-01T21:11:52.058Z,22.57
2024-01-01T21:14:20.942Z,28.20
2024-01-01T21:16:49.246Z,25.07
2024-01-01T21:19:17.932Z,25.37
2024-01-01T21:21:47.698Z,21.63
2024-01-01T21:24:16.282Z,18.87
2024-01-01T21:26:44.470Z,23.23
2024-01-01T21:29:13.089Z,19.53
2024-01-01T21:31:41.427Z,25.37
2024-01-01T21:34:10.236Z,18.20
2024-01-01T21:36:38.830Z,22.53
2024-01-01T21:39:08.804Z,20.47
2024-01-01T21:41:39.149Z,15.80
2024-01-01T21:44:07.791Z,14.97
2024-01-01T21:46:41.657Z,21.13
2024-01-01T21:49:10.616Z,18.13
2024-01-01T21:51:39.026Z,19.40
2024-01-01T21:54:08.946Z,18.03
2024-01-01T21:56:37.245Z,23.10
2024-01-01T21:59:05.807Z,22.30
2024-01-01T22:01:35.151Z,24.23
2024-01-01T22:04:04.387Z,19.50
2024-01-01T22:06:35.064Z,22.50
2024-01-01T22:09:03.630Z,24.83
2024-01-01T22:11:33.977Z,17.97
2024-01-01T22:14:03.592Z,18.93
2024-01-01T22:16:30.914Z,21.23
2024-01-01T22:18:59.736Z,17.37
2024-01-01T22:21:28.046Z,18.40
2024-01-01T22:23:56.665Z,19.13
2024-01-01T22:26:24.982Z,17.63
2024-01-01T22:28:55.027Z,24.77
2024-01-01T22:31:23.309Z,15.97
2024-01-01T22:33:51.909Z,19.20
2024-01-01T22:36:20.150Z,15.23
2024-01-01T22:38:49.072Z,18.07
2024-01-01T22:41:17.466Z,13.57
2024-01-01T22:43:46.146Z,18.90
2024-01-01T22:46:15.934Z,14.93
2024-01-01T22:48:44.776Z,14.37
2024-01-01T22:51:13.057Z,17.57
2024-01-01T22:53:41.724Z,15.80
2024-01-01T22:56:10.063Z,18.53
2024-01-01T22:58:38.825Z,16.90
2024-01-01T23:01:07.183Z,17.27
2024-01-01T23:03:37.186Z,16.63
2024-01-01T23:06:06.258Z,16.40
2024-01-01T23:08:35.065Z,14.87
2024-01-01T23:11:03.525Z,9.10
2024-01-01T23:13:32.131Z,15.83
2024-01-01T23:16:00.441Z,15.07
2024-01-01T23:18:29.264Z,12.90
2024-01-01T23:20:59.186Z,16.67
2024-01-01T23:23:27.786Z,15.27
2024-01-01T23:25:59.865Z,14.87
2024-01-01T23:28:28.567Z,17.27
2024-01-01T23:30:57.457Z,12.37
2024-01-01T23:33:26.261Z,13.07
2024-01-01T23:35:54.714Z,13.03
2024-01-01T23:38:24.724Z,11.13
2024-01-01T23:40:53.098Z,12.20
2024-01-01T23:43:21.730Z,11.43
2024-01-01T23:45:50.117Z,14.23
2024-01-01T23:48:20.186Z,13.53
2024-01-01T23:50:49.549Z,17.50
2024-01-01T23:53:19.101Z,9.13
2024-01-01T23:55:49.488Z,15.77
2024-01-01T23:58:18.146Z,19.03
